Time;durP1;ratioP1;P1;durP2;ratioP2;P2;SDS_P1;SDS_P2;PMS_P1;PMS_P2;Temp;Humidity;BMP_temperature;BMP_pressure;BME280_temperature;BME280_humidity;BME280_pressure;Samples;Min_cycle;Max_cycle;Signal;HPM_P1;HPM_P2
2022/06/25 00:01:08;;;;;;;3.60;2.42;;;;;;;25.83;41.29;100425.04;1797708;79;21593;-80
2022/06/25 00:03:35;;;;;;;3.50;2.52;;;;;;;25.82;41.30;100414.25;1797838;79;21029;-80
2022/06/25 00:06:02;;;;;;;5.90;2.87;;;;;;;25.81;41.33;100409.25;1797965;79;21436;-80
2022/06/25 00:08:28;;;;;;;3.72;2.60;;;;;;;25.82;41.33;100410.06;1797402;79;21025;-80
2022/06/25 00:10:55;;;;;;;4.50;2.67;;;;;;;25.82;41.35;100410.06;1797719;79;21056;-79
2022/06/25 00:13:21;;;;;;;3.33;2.58;;;;;;;25.82;41.40;100407.28;1797777;79;21085;-79
2022/06/25 00:15:48;;;;;;;4.00;2.70;;;;;;;25.82;41.37;100411.45;1797492;79;21045;-80
2022/06/25 00:18:14;;;;;;;5.20;2.83;;;;;;;25.81;41.40;100407.86;1797681;79;21327;-80
2022/06/25 00:20:42;;;;;;;4.80;2.70;;;;;;;25.82;41.40;100400.31;1775470;79;21506;-79
2022/06/25 00:23:08;;;;;;;6.10;2.70;;;;;;;25.82;41.42;100398.92;1797651;79;21005;-80
2022/06/25 00:25:34;;;;;;;4.08;2.77;;;;;;;25.82;41.43;100400.31;1797968;79;21116;-80
2022/06/25 00:28:01;;;;;;;4.90;3.12;;;;;;;25.81;41.44;100406.47;1798003;79;21468;-82
2022/06/25 00:30:28;;;;;;;5.40;3.35;;;;;;;25.82;41.43;100405.88;1801887;79;21020;-80
2022/06/25 00:32:54;;;;;;;7.15;3.30;;;;;;;25.82;41.48;100405.88;1797769;79;20980;-80
2022/06/25 00:35:21;;;;;;;3.77;2.90;;;;;;;25.81;41.47;100405.66;1797913;79;20922;-80
2022/06/25 00:37:53;;;;;;;5.35;3.50;;;;;;;25.82;41.48;100407.28;1797510;79;21475;-80
2022/06/25 00:40:19;;;;;;;8.20;3.42;;;;;;;25.82;41.48;100404.48;1798030;79;21183;-80
2022/06/25 00:42:46;;;;;;;4.55;3.08;;;;;;;25.81;41.49;100406.47;1797810;79;21002;-80
2022/06/25 00:45:19;;;;;;;4.45;2.95;;;;;;;25.82;41.50;100404.48;1797521;79;21048;-80
2022/06/25 00:47:46;;;;;;;5.80;3.12;;;;;;;25.81;41.52;100407.05;1797938;79;21076;-80
2022/06/25 00:50:12;;;;;;;5.25;3.30;;;;;;;25.80;41.54;100406.23;1797841;79;21136;-81
2022/06/25 00:52:42;;;;;;;4.85;3.08;;;;;;;25.82;41.54;100398.34;1797697;79;21111;-81
2022/06/25 00:55:12;;;;;;;3.77;2.80;;;;;;;25.82;41.55;100399.73;1797976;79;21029;-82
2022/06/25 00:57:43;;;;;;;4.72;3.20;;;;;;;25.81;41.56;100398.11;1797742;79;21021;-80
2022/06/25 01:00:14;;;;;;;5.45;3.60;;;;;;;25.81;41.56;100400.08;1797646;79;21554;-80
2022/06/25 01:02:42;;;;;;;4.65;3.22;;;;;;;25.81;41.59;100390.33;1797895;79;21026;-80
2022/06/25 01:05:11;;;;;;;5.45;3.00;;;;;;;25.81;41.59;100394.51;1797608;79;21543;-80
2022/06/25 01:07:37;;;;;;;4.75;3.08;;;;;;;25.81;41.60;100392.53;1797341;79;21853;-80
2022/06/25 01:10:06;;;;;;;4.55;3.27;;;;;;;25.81;41.60;100395.91;1797432;79;21021;-80
2022/06/25 01:12:33;;;;;;;5.37;2.95;;;;;;;25.81;41.61;100398.11;1797661;79;21037;-80
2022/06/25 01:15:07;;;;;;;4.90;3.17;;;;;;;25.82;41.62;100400.31;1797159;79;21092;-80
2022/06/25 01:17:36;;;;;;;5.53;3.77;;;;;;;25.82;41.62;100399.73;1797417;79;21053;-81
2022/06/25 01:20:01;;;;;;;5.62;3.20;;;;;;;25.82;41.62;100405.88;1797584;79;21226;-80
2022/06/25 01:22:28;;;;;;;4.97;3.22;;;;;;;25.81;41.63;100396.71;1797508;79;21013;-80
2022/06/25 01:24:54;;;;;;;4.47;3.50;;;;;;;25.81;41.63;100391.14;1797411;79;20993;-81
2022/06/25 01:27:20;;;;;;;3.52;3.08;;;;;;;25.82;41.65;100391.95;1797737;79;21068;-80
2022/06/25 01:29:46;;;;;;;5.53;3.37;;;;;;;25.82;41.63;100396.13;1797352;79;21107;-80
2022/06/25 01:32:13;;;;;;;4.67;3.33;;;;;;;25.81;41.65;100398.11;1797834;79;21117;-80
2022/06/25 01:34:39;;;;;;;4.28;3.17;;;;;;;25.81;41.65;100397.30;1797736;79;21404;-80
2022/06/25 01:37:06;;;;;;;5.15;3.20;;;;;;;25.81;41.65;100398.69;1797175;79;20969;-81
2022/06/25 01:39:32;;;;;;;6.05;3.30;;;;;;;25.82;41.65;100405.30;1797543;79;21029;-80
2022/06/25 01:41:58;;;;;;;5.92;2.77;;;;;;;25.81;41.66;100407.05;1797776;79;21041;-80
2022/06/25 01:44:25;;;;;;;4.10;3.00;;;;;;;25.82;41.66;100404.48;1797693;79;21458;-80
2022/06/25 01:46:51;;;;;;;4.47;3.25;;;;;;;25.81;41.67;100394.51;1802198;79;21024;-80
2022/06/25 01:49:18;;;;;;;6.45;3.50;;;;;;;25.82;41.68;100410.06;1797725;79;20993;-80
2022/06/25 01:51:44;;;;;;;4.87;3.00;;;;;;;25.81;41.69;100408.44;1797668;79;21054;-80
2022/06/25 01:54:11;;;;;;;4.65;3.50;;;;;;;25.82;41.71;100413.66;1797926;79;21499;-81
2022/06/25 01:56:37;;;;;;;5.85;3.30;;;;;;;25.82;41.71;100419.81;1797668;79;21880;-80
2022/06/25 01:59:03;;;;;;;4.72;3.55;;;;;;;25.81;41.73;100420.40;1797353;79;21099;-80
2022/06/25 02:01:30;;;;;;;4.83;3.35;;;;;;;25.81;41.73;100423.19;1797799;78;21047;-80
2022/06/25 02:03:56;;;;;;;4.85;3.15;;;;;;;25.81;41.73;100426.55;1797784;79;20979;-81
2022/06/25 02:06:22;;;;;;;6.35;3.58;;;;;;;25.81;41.73;100430.16;1797696;79;21016;-80
2022/06/25 02:08:49;;;;;;;3.62;3.00;;;;;;;25.81;41.74;100434.91;1797831;78;21359;-80
2022/06/25 02:11:15;;;;;;;4.58;3.22;;;;;;;25.82;41.74;100435.14;1797804;79;21048;-80
2022/06/25 02:13:42;;;;;;;4.35;3.20;;;;;;;25.80;41.76;100432.71;1797480;79;21083;-80
2022/06/25 02:16:08;;;;;;;5.83;3.20;;;;;;;25.81;41.78;100433.52;1797923;78;21079;-80
2022/06/25 02:18:34;;;;;;;4.35;3.33;;;;;;;25.81;41.78;100435.73;1797907;79;21075;-81
2022/06/25 02:21:01;;;;;;;4.70;3.42;;;;;;;25.82;41.79;100437.94;1797506;78;21023;-81
2022/06/25 02:23:27;;;;;;;5.40;3.50;;;;;;;25.81;41.80;100433.52;1801945;79;21063;-80
2022/06/25 02:25:54;;;;;;;5.20;3.67;;;;;;;25.80;41.81;100443.86;1797950;78;20940;-80
2022/06/25 02:28:20;;;;;;;3.70;3.17;;;;;;;25.81;41.81;100444.67;1797435;78;21059;-80
2022/06/25 02:30:46;;;;;;;4.37;3.50;;;;;;;25.81;41.82;100449.66;1797837;79;21064;-80
2022/06/25 02:33:14;;;;;;;3.80;2.95;;;;;;;25.81;41.87;100447.45;1797849;79;21079;-80
2022/06/25 02:35:41;;;;;;;7.53;3.17;;;;;;;25.81;41.87;100447.45;1797585;79;20966;-80
2022/06/25 02:38:10;;;;;;;5.42;3.62;;;;;;;25.80;41.86;100448.65;1797875;79;21573;-80
2022/06/25 02:40:36;;;;;;;5.30;3.42;;;;;;;25.79;41.87;100449.23;1797542;79;21088;-79
2022/06/25 02:43:04;;;;;;;4.22;3.65;;;;;;;25.80;41.87;100452.22;1797692;79;21068;-79
2022/06/25 02:45:30;;;;;;;6.15;3.00;;;;;;;25.80;41.89;100452.22;1798021;79;21904;-80
2022/06/25 02:47:56;;;;;;;4.75;3.42;;;;;;;25.79;41.89;100446.45;1797867;79;21021;-80
2022/06/25 02:50:24;;;;;;;5.15;3.47;;;;;;;25.80;41.92;100450.04;1797528;79;21036;-81
2022/06/25 02:52:51;;;;;;;4.53;3.17;;;;;;;25.79;41.92;100456.78;1797354;79;21021;-79
2022/06/25 02:55:17;;;;;;;3.58;3.05;;;;;;;25.79;41.93;100463.16;1800070;78;21048;-80
2022/06/25 03:00:29;;;;;;;5.95;3.42;;;;;;;25.78;41.94;100453.18;1808556;79;21083;-80
2022/06/25 03:02:55;;;;;;;5.35;3.40;;;;;;;25.79;41.95;100460.95;1808630;79;21025;-80
2022/06/25 03:05:21;;;;;;;7.72;3.75;;;;;;;25.79;41.97;100458.17;1808884;78;20992;-80
2022/06/25 03:07:48;;;;;;;4.62;3.62;;;;;;;25.79;41.99;100462.35;1808750;78;21024;-80
2022/06/25 03:10:14;;;;;;;3.77;3.27;;;;;;;25.79;41.99;100463.16;1808738;79;21172;-80
2022/06/25 03:12:40;;;;;;;5.03;3.37;;;;;;;25.79;42.01;100459.56;1735253;79;20901;-81
2022/06/25 03:15:08;;;;;;;5.47;3.42;;;;;;;25.79;42.02;100460.95;1808453;79;21075;-80
2022/06/25 03:17:34;;;;;;;5.75;3.35;;;;;;;25.79;42.03;100452.59;1808568;79;21027;-80
2022/06/25 03:20:00;;;;;;;5.35;3.65;;;;;;;25.79;42.04;100452.59;1808808;79;20992;-81
2022/06/25 03:22:27;;;;;;;4.53;3.20;;;;;;;25.79;42.06;100456.78;1808794;79;21840;-80
2022/06/25 03:24:53;;;;;;;4.90;3.58;;;;;;;25.79;42.07;100460.95;1808463;78;21029;-80
2022/06/25 03:27:19;;;;;;;7.22;3.37;;;;;;;25.79;42.07;100465.95;1808885;79;21040;-80
2022/06/25 03:29:46;;;;;;;4.72;3.25;;;;;;;25.78;42.06;100464.33;1808487;79;21431;-80
2022/06/25 03:32:12;;;;;;;3.62;2.87;;;;;;;25.79;42.07;100465.14;1808341;79;21703;-80
2022/06/25 03:34:38;;;;;;;5.17;3.27;;;;;;;25.79;42.08;100458.17;1808718;78;22387;-80
2022/06/25 03:37:05;;;;;;;5.22;3.33;;;;;;;25.79;42.10;100463.74;1808712;79;21040;-80
2022/06/25 03:39:31;;;;;;;4.85;3.25;;;;;;;25.78;42.10;100464.33;1808691;79;21287;-80
2022/06/25 03:41:57;;;;;;;4.97;3.77;;;;;;;25.79;42.12;100469.32;1808865;79;21573;-82
2022/06/25 03:44:24;;;;;;;6.47;3.60;;;;;;;25.79;42.12;100469.32;1808717;79;21060;-80
2022/06/25 03:46:50;;;;;;;4.40;3.17;;;;;;;25.79;42.13;100470.13;1808441;79;21153;-82
2022/06/25 03:49:16;;;;;;;4.92;3.15;;;;;;;25.78;42.09;100466.30;1803756;79;21052;-81
2022/06/25 03:51:42;;;;;;;5.45;3.80;;;;;;;25.78;42.12;100475.47;1808742;79;21103;-81
2022/06/25 03:54:09;;;;;;;3.95;2.90;;;;;;;25.78;42.12;100467.11;1808509;78;21579;-81
2022/06/25 03:56:41;;;;;;;5.15;3.25;;;;;;;25.78;42.13;100468.50;1807068;79;21052;-80
2022/06/25 03:59:07;;;;;;;4.00;3.08;;;;;;;25.78;42.14;100464.33;1806575;79;21005;-80
2022/06/25 04:01:34;;;;;;;5.05;3.17;;;;;;;25.78;42.13;100462.12;1806212;79;21025;-80
2022/06/25 04:04:00;;;;;;;4.42;3.25;;;;;;;25.79;42.15;100466.53;1806480;79;20997;-80
2022/06/25 04:06:26;;;;;;;4.50;3.22;;;;;;;25.78;42.13;100465.72;1806541;79;21487;-81
2022/06/25 04:08:53;;;;;;;4.12;3.05;;;;;;;25.79;42.16;100460.95;1806285;79;21032;-83
2022/06/25 04:11:19;;;;;;;4.85;3.15;;;;;;;25.78;42.15;100467.70;1806537;78;21513;-80
2022/06/25 04:13:55;;;;;;;5.17;3.25;;;;;;;25.78;42.14;100471.30;1806112;79;21064;-80
2022/06/25 04:16:22;;;;;;;4.10;3.15;;;;;;;25.79;42.15;100465.95;1805964;79;21013;-80
2022/06/25 04:18:49;;;;;;;4.40;2.80;;;;;;;25.79;42.18;100471.52;1806419;78;21104;-79
2022/06/25 04:21:15;;;;;;;5.03;3.58;;;;;;;25.78;42.19;100476.87;1806452;79;20997;-80
2022/06/25 04:23:42;;;;;;;4.37;2.83;;;;;;;25.79;42.19;100483.25;1806278;79;21400;-80
2022/06/25 04:26:08;;;;;;;5.05;3.40;;;;;;;25.79;42.20;100477.67;1806567;79;20973;-80
2022/06/25 04:31:19;;;;;;;4.90;3.17;;;;;;;25.80;42.21;100479.30;1806061;79;21013;-81
2022/06/25 04:33:45;;;;;;;4.17;3.20;;;;;;;25.78;42.21;100478.26;1806186;78;20989;-79
2022/06/25 04:36:12;;;;;;;4.53;3.20;;;;;;;25.79;42.22;100479.88;1806368;79;21158;-80
2022/06/25 04:38:38;;;;;;;4.40;3.17;;;;;;;25.79;42.22;100486.04;1805778;79;21072;-80
2022/06/25 04:41:04;;;;;;;4.28;2.87;;;;;;;25.80;42.24;100494.63;1803441;79;21085;-80
2022/06/25 04:43:30;;;;;;;5.40;3.22;;;;;;;25.80;42.22;100494.63;1806460;79;21091;-80
2022/06/25 04:45:57;;;;;;;5.50;3.20;;;;;;;25.79;42.24;100500.78;1806373;79;21060;-81
2022/06/25 04:48:23;;;;;;;3.65;3.00;;;;;;;25.80;42.25;100508.56;1806780;78;21086;-80
2022/06/25 04:50:50;;;;;;;4.60;3.52;;;;;;;25.80;42.27;100502.99;1806559;79;21443;-79
2022/06/25 04:53:16;;;;;;;3.52;2.92;;;;;;;25.80;42.27;100509.95;1806421;79;21483;-80
2022/06/25 04:55:42;;;;;;;3.40;3.10;;;;;;;25.80;42.27;100512.74;1806633;78;20953;-80
2022/06/25 04:58:09;;;;;;;4.05;3.30;;;;;;;25.80;42.28;100516.31;1806561;79;21036;-80
2022/06/25 05:00:36;;;;;;;3.62;2.72;;;;;;;25.81;42.30;100517.94;1806677;79;21144;-80
2022/06/25 05:03:02;;;;;;;4.80;3.08;;;;;;;25.80;42.28;100514.14;1806820;79;20890;-80
2022/06/25 05:05:28;;;;;;;4.97;3.12;;;;;;;25.80;42.29;100519.71;1806849;78;21072;-80
2022/06/25 05:07:54;;;;;;;5.05;3.40;;;;;;;25.80;42.29;100519.71;1806580;78;21033;-80
2022/06/25 05:10:21;;;;;;;3.70;2.62;;;;;;;25.81;42.31;100526.88;1806779;79;21585;-80
2022/06/25 05:15:33;;;;;;;3.37;2.87;;;;;;;25.81;42.33;100524.09;1806431;78;21498;-81
2022/06/25 05:18:01;;;;;;;4.03;2.75;;;;;;;25.80;42.34;100523.28;1806877;79;21001;-80
2022/06/25 05:20:28;;;;;;;4.65;3.10;;;;;;;25.80;42.32;100530.25;1806231;78;20929;-80
2022/06/25 05:22:54;;;;;;;4.53;2.98;;;;;;;25.80;42.35;100526.68;1806494;79;21021;-80
2022/06/25 05:25:26;;;;;;;4.35;3.12;;;;;;;25.80;42.35;100527.46;1806704;78;21274;-80
2022/06/25 05:27:52;;;;;;;3.77;2.75;;;;;;;25.80;42.35;100529.47;1806820;79;21076;-80
2022/06/25 05:30:19;;;;;;;3.83;2.95;;;;;;;25.80;42.37;100531.64;1806312;79;21039;-81
2022/06/25 05:32:45;;;;;;;3.47;2.60;;;;;;;25.81;42.37;100537.45;1806766;79;21513;-81
2022/06/25 05:35:12;;;;;;;3.10;2.77;;;;;;;25.81;42.38;100533.84;1777354;79;21040;-80
2022/06/25 05:37:38;;;;;;;4.00;3.02;;;;;;;25.80;42.39;100531.64;1806077;79;21079;-81
2022/06/25 05:40:06;;;;;;;4.42;2.92;;;;;;;25.82;42.38;100534.08;1806401;79;21624;-81
2022/06/25 05:42:33;;;;;;;4.55;2.87;;;;;;;25.80;42.40;100534.43;1806279;79;21044;-80
2022/06/25 05:45:00;;;;;;;4.45;3.25;;;;;;;25.81;42.40;100537.45;1806276;79;21060;-80
2022/06/25 05:47:26;;;;;;;3.92;2.98;;;;;;;25.81;42.40;100536.63;1806671;79;21545;-81
2022/06/25 05:49:53;;;;;;;4.55;2.95;;;;;;;25.81;42.42;100538.84;1730537;79;21608;-80
2022/06/25 05:52:19;;;;;;;4.58;2.98;;;;;;;25.82;42.42;100535.47;1806392;79;21005;-84
2022/06/25 05:54:45;;;;;;;4.15;2.70;;;;;;;25.82;42.40;100535.47;1806668;78;21028;-80
2022/06/25 05:57:12;;;;;;;5.80;2.92;;;;;;;25.82;42.38;100543.25;1801518;78;21076;-81
2022/06/25 05:59:38;;;;;;;5.70;3.20;;;;;;;25.82;42.32;100539.08;1797673;79;21591;-80
2022/06/25 06:02:05;;;;;;;3.62;2.70;;;;;;;25.82;42.27;100536.28;1798002;79;20998;-80
2022/06/25 06:04:31;;;;;;;3.95;2.90;;;;;;;25.83;42.24;100545.46;1797772;79;21487;-80
2022/06/25 06:06:59;;;;;;;4.42;2.72;;;;;;;25.83;42.21;100538.49;1797477;79;20998;-80
2022/06/25 06:09:34;;;;;;;3.37;2.75;;;;;;;25.83;42.18;100539.30;1797927;79;21026;-80
2022/06/25 06:12:00;;;;;;;4.10;2.72;;;;;;;25.85;42.17;100542.52;1797823;79;21524;-80
2022/06/25 06:14:27;;;;;;;5.10;3.08;;;;;;;25.85;42.12;100540.32;1797851;79;21506;-80
2022/06/25 06:16:53;;;;;;;2.80;2.35;;;;;;;25.84;42.12;100535.33;1797956;79;21048;-80
2022/06/25 06:19:20;;;;;;;3.20;2.42;;;;;;;25.85;42.10;100533.35;1797663;79;21092;-80
2022/06/25 06:21:46;;;;;;;3.42;2.55;;;;;;;25.85;42.02;100535.56;1798143;79;21020;-80
2022/06/25 06:24:12;;;;;;;4.12;2.60;;;;;;;25.86;42.03;100528.02;1775836;79;21661;-80
2022/06/25 06:26:38;;;;;;;3.27;2.20;;;;;;;25.86;42.00;100529.41;1797778;79;20988;-81
2022/06/25 06:29:05;;;;;;;3.00;2.62;;;;;;;25.86;41.99;100525.22;1797995;79;21056;-80
2022/06/25 06:31:31;;;;;;;3.87;2.67;;;;;;;25.87;41.99;100528.24;1797936;79;21057;-81
2022/06/25 06:33:58;;;;;;;3.17;2.55;;;;;;;25.86;42.04;100523.25;1797647;79;21532;-80
2022/06/25 06:36:24;;;;;;;4.17;2.75;;;;;;;25.88;42.13;100531.27;1797846;79;21017;-80
2022/06/25 06:38:50;;;;;;;3.50;2.40;;;;;;;25.88;42.17;100522.90;1797961;79;21005;-80
2022/06/25 06:41:17;;;;;;;4.15;2.70;;;;;;;25.88;42.17;100523.71;1797638;79;21017;-80
2022/06/25 06:43:45;;;;;;;4.45;2.92;;;;;;;25.88;42.21;100523.71;1797966;79;21440;-80
2022/06/25 06:46:18;;;;;;;4.40;2.70;;;;;;;25.88;42.26;100509.78;1798016;79;20965;-80
2022/06/25 06:48:45;;;;;;;3.40;2.35;;;;;;;25.89;42.27;100509.16;1797660;78;21036;-80
2022/06/25 06:51:11;;;;;;;3.75;2.62;;;;;;;25.88;42.31;100515.35;1798024;79;21577;-80
2022/06/25 06:53:37;;;;;;;4.40;2.72;;;;;;;25.88;42.35;100511.17;1797903;78;21019;-80
2022/06/25 06:56:09;;;;;;;3.47;2.60;;;;;;;25.89;42.38;100514.16;1797441;78;21423;-80
2022/06/25 06:58:36;;;;;;;4.40;2.72;;;;;;;25.89;42.40;100504.98;1817501;79;21050;-80
2022/06/25 07:01:03;;;;;;;2.87;2.40;;;;;;;25.89;42.41;100507.19;1788163;79;21046;-79
2022/06/25 07:03:29;;;;;;;4.00;2.90;;;;;;;25.90;42.45;100503.23;1817273;78;21939;-80
2022/06/25 07:05:56;;;;;;;3.55;2.60;;;;;;;25.91;42.45;100501.27;1817446;78;21031;-79
2022/06/25 07:08:22;;;;;;;3.17;2.42;;;;;;;25.91;42.45;100499.29;1817398;77;21715;-80
2022/06/25 07:10:50;;;;;;;3.00;2.42;;;;;;;25.93;42.47;100491.16;1817167;79;21015;-80
2022/06/25 07:13:17;;;;;;;3.42;2.60;;;;;;;25.93;42.47;100493.34;1817638;78;21007;-80
2022/06/25 07:15:43;;;;;;;3.50;2.67;;;;;;;25.93;42.48;100496.73;1817614;79;21457;-80
2022/06/25 07:18:09;;;;;;;3.65;2.65;;;;;;;25.94;42.47;100492.17;1817362;78;21476;-80
2022/06/25 07:20:36;;;;;;;3.75;2.60;;;;;;;25.93;42.50;100492.75;1817678;79;21113;-80
2022/06/25 07:23:02;;;;;;;4.45;2.45;;;;;;;25.93;42.50;100489.97;1817500;77;21051;-80
2022/06/25 07:25:28;;;;;;;2.90;2.50;;;;;;;25.94;42.50;100482.41;1817257;79;21043;-80
2022/06/25 07:27:55;;;;;;;3.20;2.42;;;;;;;25.94;42.50;100489.38;1817101;77;21105;-80
2022/06/25 07:30:21;;;;;;;3.15;2.47;;;;;;;25.95;42.51;100491.59;1817393;77;21031;-81
2022/06/25 07:32:47;;;;;;;3.33;2.40;;;;;;;25.96;42.51;100490.43;1787265;79;21086;-80
2022/06/25 07:35:13;;;;;;;4.47;2.75;;;;;;;25.96;42.51;100494.03;1817271;79;21105;-82
2022/06/25 07:37:46;;;;;;;2.98;2.42;;;;;;;25.96;42.51;100498.21;1817213;79;21038;-80
2022/06/25 07:40:12;;;;;;;3.65;2.77;;;;;;;25.97;42.51;100505.98;1814421;78;21370;-80
2022/06/25 07:42:39;;;;;;;3.90;2.60;;;;;;;25.97;42.51;100501.20;1787867;79;20979;-80
2022/06/25 07:45:06;;;;;;;4.20;2.72;;;;;;;25.97;42.51;100505.37;1817558;78;21109;-80
2022/06/25 07:47:40;;;;;;;2.87;2.52;;;;;;;25.98;42.51;100504.80;1817209;77;20991;-80
2022/06/25 07:52:53;;;;;;;3.20;2.42;;;;;;;25.98;42.53;100505.61;1817051;79;21516;-81
2022/06/25 07:55:26;;;;;;;4.03;2.58;;;;;;;25.98;42.51;100506.19;1816915;79;21043;-80
2022/06/25 07:57:52;;;;;;;3.15;2.50;;;;;;;25.98;42.51;100505.61;1805515;78;21006;-80
2022/06/25 08:00:19;;;;;;;2.83;2.45;;;;;;;25.99;42.53;100499.45;1797360;79;21031;-81
2022/06/25 08:02:45;;;;;;;3.58;2.42;;;;;;;25.98;42.54;100497.25;1797610;78;21087;-81
2022/06/25 08:05:12;;;;;;;3.83;2.80;;;;;;;25.99;42.53;100493.30;1797725;78;21111;-80
2022/06/25 08:07:46;;;;;;;3.42;2.75;;;;;;;25.99;42.53;100498.88;1797284;78;21024;-80
2022/06/25 08:10:12;;;;;;;4.17;2.50;;;;;;;25.99;42.55;100494.69;1797441;78;21502;-80
2022/06/25 08:12:38;;;;;;;2.83;2.40;;;;;;;26.00;42.54;100497.70;1797876;79;21454;-80
2022/06/25 08:15:06;;;;;;;4.33;2.87;;;;;;;26.00;42.54;100496.31;1797702;79;21075;-80
2022/06/25 08:17:34;;;;;;;4.37;2.33;;;;;;;26.00;42.53;100497.70;1797919;79;21518;-81
2022/06/25 08:20:01;;;;;;;3.15;2.70;;;;;;;26.00;42.54;100496.31;1797555;79;21044;-81
2022/06/25 08:22:27;;;;;;;3.15;2.42;;;;;;;26.01;42.55;100497.13;1797472;79;21043;-80
2022/06/25 08:24:53;;;;;;;3.35;2.20;;;;;;;26.01;42.54;100490.97;1797776;78;21059;-80
2022/06/25 08:27:20;;;;;;;3.45;2.55;;;;;;;26.01;42.55;100493.76;1798156;79;20893;-80
2022/06/25 08:29:46;;;;;;;3.00;2.50;;;;;;;26.01;42.56;100488.18;1797744;79;21169;-80
2022/06/25 08:32:13;;;;;;;3.02;2.62;;;;;;;26.02;42.57;100492.56;1797955;79;20993;-80
2022/06/25 08:34:39;;;;;;;3.20;2.45;;;;;;;26.01;42.56;100489.58;1798034;79;20969;-80
2022/06/25 08:37:05;;;;;;;3.33;2.30;;;;;;;26.02;42.55;100489.77;1797829;79;21001;-81
2022/06/25 08:39:32;;;;;;;4.20;2.30;;;;;;;26.03;42.57;100486.41;1797947;79;21009;-80
2022/06/25 08:42:03;;;;;;;3.72;2.37;;;;;;;26.02;42.55;100488.37;1797846;79;21939;-80
2022/06/25 08:44:30;;;;;;;3.17;2.12;;;;;;;26.03;42.57;100488.61;1797388;79;21522;-80
2022/06/25 08:46:58;;;;;;;3.42;2.37;;;;;;;26.03;42.57;100484.43;1798000;79;21040;-80
2022/06/25 08:49:26;;;;;;;2.80;2.30;;;;;;;26.03;42.55;100488.61;1797839;79;21076;-80
2022/06/25 08:51:57;;;;;;;3.40;2.62;;;;;;;26.04;42.57;100489.42;1797422;79;21123;-80
2022/06/25 08:54:24;;;;;;;3.72;2.33;;;;;;;26.03;42.58;100490.59;1801969;79;21161;-80
2022/06/25 08:56:51;;;;;;;3.15;2.30;;;;;;;26.03;42.59;100485.02;1775499;79;21025;-81
2022/06/25 08:59:17;;;;;;;3.80;2.30;;;;;;;26.03;42.58;100487.22;1797731;79;20994;-80
2022/06/25 09:01:45;;;;;;;3.10;2.25;;;;;;;26.04;42.59;100490.23;1797977;79;20994;-80
2022/06/25 09:04:11;;;;;;;3.58;2.33;;;;;;;26.03;42.59;100485.83;1797946;79;21025;-79
2022/06/25 09:06:37;;;;;;;3.52;2.37;;;;;;;26.04;42.59;100494.42;1797728;79;21526;-82
2022/06/25 09:09:16;;;;;;;3.45;2.25;;;;;;;26.05;42.60;100486.87;1798001;79;20938;-80
2022/06/25 09:11:56;;;;;;;4.62;2.45;;;;;;;26.06;42.60;100490.67;1797787;79;21468;-80
2022/06/25 09:14:28;;;;;;;2.85;2.08;;;;;;;26.04;42.59;100486.05;1797733;79;21053;-81
2022/06/25 09:17:04;;;;;;;3.20;2.10;;;;;;;26.04;42.60;100493.02;1797174;79;21578;-80
2022/06/25 09:19:47;;;;;;;2.45;2.15;;;;;;;26.03;42.61;100484.43;1797350;79;21127;-80
2022/06/25 09:22:21;;;;;;;2.95;2.20;;;;;;;26.06;42.60;100491.25;1797374;79;21100;-80
2022/06/25 09:24:54;;;;;;;2.60;2.40;;;;;;;26.05;42.59;100488.26;1797795;79;21622;-80
2022/06/25 09:27:40;;;;;;;3.95;2.02;;;;;;;26.04;42.61;100491.63;1797057;79;21542;-81
2022/06/25 09:30:14;;;;;;;2.45;2.10;;;;;;;26.04;42.61;100490.23;1795202;79;21115;-80
2022/06/25 09:32:55;;;;;;;3.17;2.30;;;;;;;26.04;42.61;100488.84;1797409;79;21287;-80
2022/06/25 09:35:42;;;;;;;4.25;2.22;;;;;;;26.04;42.61;100493.02;1795844;79;21002;-80
2022/06/25 09:38:15;;;;;;;2.90;2.35;;;;;;;26.04;42.61;100483.27;1797596;79;20961;-80
2022/06/25 09:40:50;;;;;;;2.77;2.27;;;;;;;26.04;42.60;100485.24;1796588;79;21527;-80
2022/06/25 09:43:20;;;;;;;3.17;2.27;;;;;;;26.04;42.64;100488.03;1797663;79;20974;-80
2022/06/25 09:45:50;;;;;;;2.98;2.67;;;;;;;26.04;42.64;100486.64;1797305;79;21621;-80
2022/06/25 09:48:28;;;;;;;3.00;2.10;;;;;;;26.04;42.65;100481.88;1797107;79;21132;-80
2022/06/25 09:51:26;;;;;;;3.27;2.20;;;;;;;26.05;42.66;100492.44;1796293;79;21087;-80
2022/06/25 09:53:58;;;;;;;3.27;2.17;;;;;;;26.05;42.67;100488.26;1797289;79;21048;-79
2022/06/25 09:56:31;;;;;;;2.65;1.95;;;;;;;26.03;42.67;100487.80;1796779;79;21016;-79
2022/06/25 09:58:57;;;;;;;2.60;2.20;;;;;;;26.05;42.67;100489.66;1796880;79;21123;-79
2022/06/25 10:01:30;;;;;;;3.72;2.40;;;;;;;26.02;42.68;100489.77;1797427;79;21061;-80
2022/06/25 10:03:56;;;;;;;3.33;2.12;;;;;;;26.03;42.71;100490.59;1796939;79;21468;-79
2022/06/25 10:06:24;;;;;;;3.22;2.27;;;;;;;26.02;42.72;100491.17;1797552;79;21001;-80
2022/06/25 10:08:54;;;;;;;2.75;2.15;;;;;;;26.03;42.73;100490.00;1797818;79;21033;-79
2022/06/25 10:11:23;;;;;;;2.50;2.22;;;;;;;26.03;42.74;100487.22;1797402;79;21174;-80
2022/06/25 10:13:51;;;;;;;4.10;2.30;;;;;;;26.04;42.73;100489.42;1797476;79;21463;-80
2022/06/25 10:16:21;;;;;;;2.60;2.00;;;;;;;26.03;42.74;100478.86;1797679;79;21096;-79
2022/06/25 10:18:49;;;;;;;;;;;;;;;26.03;42.72;100483.03;1800162;79;21029;-79
2022/06/25 10:21:16;;;;;;;2.75;2.10;;;;;;;26.03;42.70;100476.06;1797798;79;20174;-79
2022/06/25 10:23:43;;;;;;;2.42;1.98;;;;;;;26.03;42.68;100475.25;1797805;79;21551;-80
2022/06/25 10:26:10;;;;;;;2.90;2.12;;;;;;;26.04;42.68;100475.48;1797577;79;21056;-80
2022/06/25 10:28:36;;;;;;;3.77;2.20;;;;;;;26.04;42.68;100475.48;1797710;79;21100;-79
2022/06/25 10:31:09;;;;;;;2.67;2.08;;;;;;;26.03;42.71;100478.86;1797737;79;21032;-79
2022/06/25 10:34:00;;;;;;;2.87;2.22;;;;;;;26.03;42.72;100476.06;1797443;79;21037;-80
2022/06/25 10:36:52;;;;;;;2.58;2.10;;;;;;;26.03;42.73;100476.65;1797744;79;20993;-80
2022/06/25 10:39:26;;;;;;;3.27;2.27;;;;;;;26.03;42.72;100473.28;1797637;79;20989;-80
2022/06/25 10:45:15;;;;;;;3.08;2.00;;;;;;;26.03;42.73;100466.89;1797442;79;21060;-81
2022/06/25 10:47:47;;;;;;;2.67;2.12;;;;;;;26.03;42.72;100465.50;1798033;79;21013;-79
2022/06/25 10:50:27;;;;;;;2.90;2.10;;;;;;;26.03;42.73;100461.31;1797199;79;21344;-80
2022/06/25 10:53:10;;;;;;;2.17;1.80;;;;;;;26.03;42.75;100457.13;1775763;79;20973;-80
2022/06/25 10:55:51;;;;;;;2.55;1.90;;;;;;;26.02;42.77;100460.50;1797454;79;21044;-80
2022/06/25 10:58:25;;;;;;;2.15;1.90;;;;;;;26.02;42.75;100460.50;1800387;79;21599;-79
2022/06/25 11:00:57;;;;;;;4.00;2.10;;;;;;;26.02;42.78;100455.52;1808063;79;21083;-80
2022/06/25 11:03:37;;;;;;;2.77;2.10;;;;;;;26.02;42.79;100453.53;1808366;79;22064;-80
2022/06/25 11:06:26;;;;;;;2.55;2.02;;;;;;;26.02;42.78;100457.72;1808881;79;21017;-80
2022/06/25 11:08:52;;;;;;;3.50;2.30;;;;;;;26.02;42.77;100457.72;1808921;79;21001;-79
2022/06/25 11:11:27;;;;;;;2.10;1.90;;;;;;;26.02;42.79;100460.50;1803461;79;20997;-79
2022/06/25 11:13:54;;;;;;;2.22;1.92;;;;;;;26.02;42.79;100460.50;1808509;79;21032;-79
2022/06/25 11:16:20;;;;;;;3.52;2.35;;;;;;;26.02;42.79;100457.72;1808622;79;21502;-80
2022/06/25 11:18:54;;;;;;;3.00;2.00;;;;;;;26.03;42.81;100457.13;1808521;79;21003;-80
2022/06/25 11:21:36;;;;;;;2.45;1.92;;;;;;;26.03;42.83;100459.34;1808826;79;21017;-80
2022/06/25 11:24:17;;;;;;;2.50;2.00;;;;;;;26.03;42.83;100462.70;1808485;78;21033;-80
2022/06/25 11:29:38;;;;;;;4.42;2.00;;;;;;;26.03;42.81;100462.12;1808435;79;21116;-80
2022/06/25 11:32:05;;;;;;;3.50;2.30;;;;;;;26.04;42.84;100454.58;1808742;79;21486;-80
2022/06/25 11:34:32;;;;;;;2.33;2.00;;;;;;;26.03;42.84;100449.58;1808716;79;21060;-80
2022/06/25 11:37:02;;;;;;;2.40;1.98;;;;;;;26.04;42.84;100454.00;1766421;79;21527;-80
2022/06/25 11:39:29;;;;;;;2.80;2.20;;;;;;;26.05;42.86;100447.25;1750099;82;21096;-80
2022/06/25 11:41:55;;;;;;;3.62;2.02;;;;;;;26.06;42.85;100449.43;1749860;81;21101;-80
2022/06/25 11:44:22;;;;;;;3.25;1.98;;;;;;;26.04;42.84;100448.42;1749420;81;21033;-80
2022/06/25 11:46:49;;;;;;;2.98;1.92;;;;;;;26.06;42.89;100446.64;1749874;82;21061;-80